createdAt,value
2019-04-19T00:01:20.714Z,14.61
2019-04-19T00:03:51.021Z,14.61
2019-04-19T00:06:38.022Z,14.54
2019-04-19T00:09:21.336Z,14.56
2019-04-19T00:11:44.018Z,14.51
2019-04-19T00:14:07.123Z,14.51
2019-04-19T00:16:36.415Z,14.48
2019-04-19T00:19:29.051Z,14.40
2019-04-19T00:21:57.794Z,14.39
2019-04-19T00:24:06.047Z,14.40
2019-04-19T00:26:35.893Z,14.38
2019-04-19T00:29:07.643Z,14.40
2019-04-19T00:31:46.158Z,14.39
2019-04-19T00:34:06.304Z,14.32
2019-04-19T00:36:36.220Z,14.30
2019-04-19T00:39:33.731Z,14.25
2019-04-19T00:42:16.841Z,14.28
2019-04-19T00:44:53.371Z,14.17
2019-04-19T00:47:25.962Z,14.14
2019-04-19T00:49:47.467Z,14.21
2019-04-19T00:52:14.717Z,14.16
2019-04-19T00:54:46.105Z,14.15
2019-04-19T00:57:14.698Z,14.09
2019-04-19T00:59:39.970Z,14.16
2019-04-19T01:02:10.607Z,14.08
2019-04-19T01:04:37.634Z,14.12
2019-04-19T01:07:08.379Z,14.06
2019-04-19T01:09:46.708Z,14.07
2019-04-19T01:12:20.537Z,14.03
2019-04-19T01:14:45.906Z,14.04
2019-04-19T01:17:22.464Z,14.02
2019-04-19T01:19:45.388Z,14.04
2019-04-19T01:22:15.183Z,13.97
2019-04-19T01:24:44.592Z,14.00
2019-04-19T01:27:13.268Z,13.96
2019-04-19T01:29:46.199Z,13.87
2019-04-19T01:32:14.900Z,13.90
2019-04-19T01:34:41.713Z,13.80
2019-04-19T01:37:16.249Z,13.85
2019-04-19T01:40:00.801Z,13.74
2019-04-19T01:42:31.299Z,13.79
2019-04-19T01:45:09.056Z,13.81
2019-04-19T01:47:52.697Z,13.71
2019-04-19T01:50:38.246Z,13.69
2019-04-19T01:53:09.372Z,13.50
2019-04-19T01:55:26.598Z,13.50
2019-04-19T01:57:53.994Z,13.54
2019-04-19T02:00:32.907Z,13.50
2019-04-19T02:02:56.085Z,13.45
2019-04-19T02:05:22.462Z,13.37
2019-04-19T02:07:57.986Z,13.47
2019-04-19T02:11:09.972Z,13.37
2019-04-19T02:13:37.976Z,13.39
2019-04-19T02:16:11.066Z,13.44
2019-04-19T02:18:35.129Z,13.38
2019-04-19T02:21:04.394Z,13.28
2019-04-19T02:23:36.892Z,13.23
2019-04-19T02:26:09.211Z,13.34
2019-04-19T02:28:38.128Z,13.18
2019-04-19T02:31:27.248Z,13.21
2019-04-19T02:34:03.446Z,12.93
2019-04-19T02:36:36.254Z,12.99
2019-04-19T02:39:19.010Z,12.72
2019-04-19T02:41:32.202Z,12.71
2019-04-19T02:44:03.931Z,12.81
2019-04-19T02:49:09.457Z,13.07
2019-04-19T02:54:10.371Z,13.00
2019-04-19T02:57:12.488Z,13.06
2019-04-19T02:59:30.222Z,12.99
2019-04-19T03:02:16.915Z,13.06
2019-04-19T03:06:36.864Z,13.01
2019-04-19T03:08:58.851Z,13.02
2019-04-19T03:11:45.823Z,13.02
2019-04-19T03:14:12.030Z,12.97
2019-04-19T03:16:52.415Z,13.01
2019-04-19T03:19:09.459Z,13.02
2019-04-19T03:21:43.322Z,12.99
2019-04-19T03:24:16.835Z,12.97
2019-04-19T03:26:46.056Z,13.00
2019-04-19T03:29:14.878Z,13.03
2019-04-19T03:32:05.207Z,12.97
2019-04-19T03:34:30.363Z,12.90
2019-04-19T03:36:47.896Z,12.95
2019-04-19T03:39:23.483Z,12.84
2019-04-19T03:42:17.975Z,12.85
2019-04-19T03:44:30.648Z,12.92
2019-04-19T03:47:06.497Z,12.83
2019-04-19T03:49:37.176Z,12.73
2019-04-19T03:52:08.174Z,12.79
2019-04-19T03:54:32.807Z,12.70
2019-04-19T03:57:00.541Z,12.67
2019-04-19T03:59:18.354Z,12.66
2019-04-19T04:01:52.787Z,12.59
2019-04-19T04:10:06.637Z,12.46
2019-04-19T04:13:16.892Z,12.39
2019-04-19T04:15:57.720Z,12.43
2019-04-19T04:18:17.579Z,12.41
2019-04-19T04:20:52.041Z,12.37
2019-04-19T04:23:25.379Z,12.37
2019-04-19T04:25:57.379Z,12.33
2019-04-19T04:28:36.741Z,12.29
2019-04-19T04:31:00.870Z,12.25
2019-04-19T04:33:33.546Z,12.24
2019-04-19T04:36:15.844Z,12.22
2019-04-19T04:38:27.249Z,12.15
2019-04-19T04:40:50.745Z,12.20
2019-04-19T04:43:31.266Z,12.20
2019-04-19T04:46:21.129Z,12.14
2019-04-19T04:48:49.347Z,12.11
2019-04-19T04:51:26.125Z,12.15
2019-04-19T04:53:55.301Z,12.13
2019-04-19T04:56:33.962Z,12.10
2019-04-19T04:59:06.445Z,12.18
2019-04-19T05:01:43.581Z,12.07
2019-04-19T05:04:16.970Z,12.13
2019-04-19T05:06:54.353Z,12.19
2019-04-19T05:09:22.569Z,12.26
2019-04-19T05:11:59.085Z,12.29
2019-04-19T05:14:26.264Z,12.29
2019-04-19T05:17:10.427Z,12.23
2019-04-19T05:19:20.272Z,12.29
2019-04-19T05:21:52.886Z,12.33
2019-04-19T05:24:22.206Z,12.29
2019-04-19T05:27:00.752Z,12.27
2019-04-19T05:29:18.426Z,12.36
2019-04-19T05:31:41.231Z,12.38
2019-04-19T05:34:27.708Z,12.45
2019-04-19T05:36:55.046Z,12.52
2019-04-19T05:39:41.596Z,12.51
2019-04-19T05:42:14.530Z,12.51
2019-04-19T05:45:31.476Z,12.67
2019-04-19T05:47:37.663Z,12.75
2019-04-19T05:50:23.828Z,12.82
2019-04-19T05:52:42.276Z,12.93
2019-04-19T05:54:58.003Z,12.99
2019-04-19T05:57:49.122Z,12.95
2019-04-19T06:00:14.144Z,13.04
2019-04-19T06:02:36.005Z,13.07
2019-04-19T06:05:20.220Z,13.23
2019-04-19T06:07:44.603Z,13.30
2019-04-19T06:10:00.154Z,13.38
2019-04-19T06:12:33.254Z,13.53
2019-04-19T06:15:20.327Z,13.68
2019-04-19T06:18:13.097Z,13.69
2019-04-19T06:20:46.155Z,13.67
2019-04-19T06:23:18.975Z,13.83
2019-04-19T06:26:05.152Z,13.87
2019-04-19T06:30:52.084Z,14.02
2019-04-19T06:33:25.077Z,14.15
2019-04-19T06:35:41.569Z,14.26
2019-04-19T06:38:01.365Z,14.32
2019-04-19T06:40:33.427Z,14.39
2019-04-19T06:43:11.163Z,14.47
2019-04-19T06:45:49.113Z,14.53
2019-04-19T06:48:07.579Z,14.70
2019-04-19T06:50:36.813Z,14.80
2019-04-19T06:53:01.989Z,14.85
2019-04-19T06:55:35.820Z,14.95
2019-04-19T06:58:11.834Z,15.04
2019-04-19T07:00:45.249Z,15.18
2019-04-19T07:03:02.641Z,15.24
2019-04-19T07:05:43.990Z,15.33
2019-04-19T07:08:43.706Z,15.33
2019-04-19T07:10:57.517Z,15.41
2019-04-19T07:13:17.474Z,15.39
2019-04-19T07:15:55.203Z,15.52
2019-04-19T07:18:22.576Z,15.58
2019-04-19T07:20:56.388Z,15.65
2019-04-19T07:23:24.489Z,15.81
2019-04-19T07:25:59.881Z,15.86
2019-04-19T07:28:13.974Z,15.85
2019-04-19T07:30:35.523Z,15.96
2019-04-19T07:33:10.604Z,16.05
2019-04-19T07:35:57.564Z,16.09
2019-04-19T07:38:41.281Z,16.19
2019-04-19T07:40:58.275Z,16.28
2019-04-19T07:43:21.009Z,16.35
2019-04-19T07:46:12.385Z,16.43
2019-04-19T07:48:23.068Z,16.48
2019-04-19T07:50:58.948Z,16.65
2019-04-19T07:53:29.572Z,16.65
2019-04-19T07:56:01.704Z,16.88
2019-04-19T07:58:44.183Z,16.92
2019-04-19T08:01:15.041Z,16.94
2019-04-19T08:04:00.973Z,16.94
2019-04-19T08:06:32.704Z,17.12
2019-04-19T08:09:02.509Z,17.22
2019-04-19T08:11:29.238Z,17.22
2019-04-19T08:17:07.271Z,17.43
2019-04-19T08:28:33.234Z,18.03
2019-04-19T08:31:00.699Z,18.13
2019-04-19T08:33:27.540Z,18.35
2019-04-19T08:36:00.891Z,18.38
2019-04-19T08:38:30.369Z,18.47
2019-04-19T08:41:11.629Z,18.47
2019-04-19T08:43:47.432Z,18.63
2019-04-19T08:46:17.756Z,18.75
2019-04-19T08:49:22.847Z,18.75
2019-04-19T08:51:51.100Z,18.81
2019-04-19T08:54:43.557Z,18.87
2019-04-19T08:57:18.790Z,18.97
2019-04-19T09:00:06.508Z,19.04
2019-04-19T09:02:34.554Z,19.04
2019-04-19T09:05:04.960Z,19.02
2019-04-19T09:12:38.699Z,19.39
2019-04-19T09:15:06.473Z,19.39
2019-04-19T09:17:59.302Z,19.51
2019-04-19T09:20:15.368Z,19.51
2019-04-19T09:22:35.806Z,19.55
2019-04-19T09:24:57.156Z,19.59
2019-04-19T09:27:42.088Z,19.57
2019-04-19T09:30:13.576Z,19.65
2019-04-19T09:32:27.322Z,19.73
2019-04-19T09:35:00.587Z,19.89
2019-04-19T09:37:43.001Z,19.97
2019-04-19T09:40:02.800Z,20.06
2019-04-19T09:42:38.066Z,20.07
2019-04-19T09:44:58.361Z,20.12
2019-04-19T09:47:25.191Z,20.07
2019-04-19T09:50:06.695Z,20.07
2019-04-19T09:52:47.606Z,20.19
2019-04-19T09:55:15.490Z,20.26
2019-04-19T09:57:44.951Z,20.27
2019-04-19T10:00:04.356Z,20.27
2019-04-19T10:02:31.728Z,20.43
2019-04-19T10:04:56.842Z,20.40
2019-04-19T10:07:25.513Z,20.47
2019-04-19T10:10:02.819Z,20.46
2019-04-19T10:12:25.217Z,20.52
2019-04-19T10:14:54.085Z,20.44
2019-04-19T10:17:24.783Z,20.62
2019-04-19T10:19:54.910Z,20.64
2019-04-19T10:22:25.098Z,20.73
2019-04-19T10:24:54.436Z,20.84
2019-04-19T10:27:29.741Z,20.90
2019-04-19T10:29:59.820Z,21.02
2019-04-19T10:32:30.831Z,21.02
2019-04-19T10:35:00.883Z,21.11
2019-04-19T10:37:29.934Z,21.18
2019-04-19T10:39:59.543Z,21.12
2019-04-19T10:42:29.378Z,21.24
2019-04-19T10:44:58.311Z,21.39
2019-04-19T10:47:29.219Z,21.41
2019-04-19T10:50:11.990Z,21.52
2019-04-19T10:52:29.091Z,21.63
2019-04-19T10:59:00.810Z,21.60
2019-04-19T11:05:07.908Z,21.72
2019-04-19T11:07:39.821Z,21.81
2019-04-19T11:10:09.797Z,21.91
2019-04-19T11:12:38.609Z,22.00
2019-04-19T11:15:08.764Z,21.99
2019-04-19T11:17:38.063Z,22.03
2019-04-19T11:20:19.905Z,21.98
2019-04-19T11:22:37.744Z,22.00
2019-04-19T11:25:08.007Z,22.02
2019-04-19T11:27:37.392Z,22.08
2019-04-19T11:30:15.068Z,22.25
2019-04-19T11:32:49.840Z,22.35
2019-04-19T11:35:19.433Z,22.31
2019-04-19T11:37:49.141Z,22.37
2019-04-19T11:40:19.421Z,22.42
2019-04-19T11:42:49.015Z,22.43
2019-04-19T11:45:18.175Z,22.52
2019-04-19T11:47:47.404Z,22.48
2019-04-19T11:50:16.322Z,22.57
2019-04-19T11:53:08.111Z,22.56
2019-04-19T11:55:40.447Z,22.53
2019-04-19T11:58:10.524Z,22.50
2019-04-19T12:00:58.607Z,22.53
2019-04-19T12:03:30.035Z,22.51
2019-04-19T12:06:00.180Z,22.59
2019-04-19T12:08:29.033Z,22.78
2019-04-19T12:11:22.764Z,22.79
2019-04-19T12:13:52.281Z,22.83
2019-04-19T12:16:21.294Z,22.91
2019-04-19T12:18:50.043Z,23.04
2019-04-19T12:21:19.022Z,23.06
2019-04-19T12:23:48.647Z,23.18
2019-04-19T12:26:17.886Z,23.21
2019-04-19T12:28:47.797Z,23.27
2019-04-19T12:31:16.813Z,23.22
2019-04-19T12:33:45.544Z,23.26
2019-04-19T12:36:15.124Z,23.27
2019-04-19T12:38:44.092Z,23.31
2019-04-19T12:41:14.213Z,23.39
2019-04-19T12:43:43.618Z,23.50
2019-04-19T12:46:12.917Z,23.55
2019-04-19T12:48:43.544Z,23.25
2019-04-19T12:51:28.053Z,23.32
2019-04-19T13:01:15.218Z,23.64
2019-04-19T13:07:38.875Z,23.73
2019-04-19T13:10:29.164Z,23.75
2019-04-19T13:13:36.127Z,23.79
2019-04-19T13:16:06.262Z,23.82
2019-04-19T13:18:36.153Z,23.92
2019-04-19T13:21:06.085Z,23.82
2019-04-19T13:23:38.184Z,23.83
2019-04-19T13:26:07.205Z,24.04
2019-04-19T13:28:35.858Z,24.02
2019-04-19T13:31:05.924Z,24.07
2019-04-19T13:33:34.853Z,24.13
2019-04-19T13:36:06.651Z,24.17
2019-04-19T13:38:57.403Z,24.29
2019-04-19T13:41:45.115Z,24.21
2019-04-19T13:44:14.686Z,24.00
2019-04-19T13:46:44.522Z,24.07
2019-04-19T13:49:14.611Z,24.17
2019-04-19T13:51:44.757Z,24.17
2019-04-19T13:54:14.667Z,24.30
2019-04-19T13:56:45.954Z,24.26
2019-04-19T13:59:14.274Z,24.28
2019-04-19T14:01:43.147Z,24.24
2019-04-19T14:04:11.801Z,24.09
2019-04-19T14:06:40.498Z,24.23
2019-04-19T14:09:11.530Z,24.15
2019-04-19T14:11:40.347Z,24.03
2019-04-19T14:14:09.805Z,24.13
2019-04-19T14:16:39.685Z,24.23
2019-04-19T14:19:10.053Z,24.24
2019-04-19T14:21:39.210Z,24.23
2019-04-19T14:24:11.556Z,24.25
2019-04-19T14:26:47.994Z,24.40
2019-04-19T14:29:11.694Z,24.38
2019-04-19T14:31:40.631Z,24.44
2019-04-19T14:34:09.324Z,24.49
2019-04-19T14:36:38.170Z,24.46
2019-04-19T14:39:08.944Z,24.43
2019-04-19T14:41:38.065Z,24.49
2019-04-19T14:44:07.367Z,24.45
2019-04-19T14:46:36.775Z,24.41
2019-04-19T14:49:06.926Z,24.46
2019-04-19T14:51:39.148Z,24.60
2019-04-19T14:54:06.883Z,24.53
2019-04-19T14:57:11.177Z,24.60
2019-04-19T14:59:40.796Z,24.54
2019-04-19T15:02:26.895Z,24.55
2019-04-19T15:05:03.265Z,24.54
2019-04-19T15:07:32.410Z,24.64
2019-04-19T15:10:01.756Z,24.68
2019-04-19T15:12:31.074Z,24.69
2019-04-19T15:14:59.850Z,24.62
2019-04-19T15:17:28.746Z,24.54
2019-04-19T15:19:57.683Z,24.56
2019-04-19T15:22:26.446Z,24.52
2019-04-19T15:24:55.145Z,24.48
2019-04-19T15:27:25.130Z,24.56
2019-04-19T15:29:54.725Z,24.56
2019-04-19T15:32:24.440Z,24.38
2019-04-19T15:34:53.844Z,24.35
2019-04-19T15:37:23.180Z,24.48
2019-04-19T15:39:52.011Z,24.51
2019-04-19T15:42:20.652Z,24.50
2019-04-19T15:44:49.350Z,24.55
2019-04-19T15:47:18.967Z,24.54
2019-04-19T15:49:48.213Z,24.55
2019-04-19T15:52:22.029Z,24.59
2019-04-19T15:55:46.247Z,24.72
2019-04-19T15:59:10.907Z,24.69
2019-04-19T16:02:17.936Z,24.68
2019-04-19T16:05:58.116Z,24.69
2019-04-19T16:08:40.890Z,24.59
2019-04-19T16:11:28.727Z,24.52
2019-04-19T16:13:57.601Z,24.62
2019-04-19T16:16:26.984Z,24.51
2019-04-19T16:18:56.243Z,24.52
2019-04-19T16:21:33.004Z,24.51
2019-04-19T16:23:55.362Z,24.54
2019-04-19T16:26:24.452Z,24.50
2019-04-19T16:28:55.670Z,24.49
2019-04-19T16:31:24.400Z,24.50
2019-04-19T16:33:54.101Z,24.50
2019-04-19T16:36:23.255Z,24.52
2019-04-19T16:38:52.994Z,24.58
2019-04-19T16:41:22.744Z,24.56
2019-04-19T16:43:51.574Z,24.59
2019-04-19T16:46:25.342Z,24.45
2019-04-19T16:49:08.738Z,24.36
2019-04-19T16:59:23.832Z,24.28
2019-04-19T17:01:54.750Z,24.18
2019-04-19T17:04:26.054Z,24.08
2019-04-19T17:06:54.327Z,24.07
2019-04-19T17:09:23.020Z,23.98
2019-04-19T17:11:51.665Z,23.83
2019-04-19T17:14:21.039Z,23.79
2019-04-19T17:17:00.399Z,23.77
2019-04-19T17:20:00.590Z,23.74
2019-04-19T17:22:40.750Z,23.66
2019-04-19T17:25:11.238Z,23.67
2019-04-19T17:27:41.038Z,23.75
2019-04-19T17:30:12.674Z,23.86
2019-04-19T17:32:42.068Z,23.81
2019-04-19T17:35:12.268Z,23.66
2019-04-19T17:37:42.305Z,23.54
2019-04-19T17:40:11.305Z,23.60
2019-04-19T17:42:40.388Z,23.61
2019-04-19T17:45:09.504Z,23.44
2019-04-19T17:47:40.865Z,23.40
2019-04-19T17:50:09.071Z,23.31
2019-04-19T17:52:39.093Z,23.33
2019-04-19T17:55:36.710Z,23.27
2019-04-19T17:57:59.576Z,23.25
2019-04-19T18:00:36.286Z,23.14
2019-04-19T18:03:24.831Z,23.02
2019-04-19T18:05:55.958Z,22.91
2019-04-19T18:08:36.134Z,22.79
2019-04-19T18:11:07.455Z,22.70
2019-04-19T18:13:41.400Z,22.38
2019-04-19T18:16:14.460Z,22.48
2019-04-19T18:18:49.090Z,22.33
2019-04-19T18:21:23.915Z,22.12
2019-04-19T18:23:54.798Z,21.96
2019-04-19T18:26:28.293Z,21.79
2019-04-19T18:28:54.091Z,21.61
2019-04-19T18:31:32.727Z,21.47
2019-04-19T18:34:09.704Z,21.26
2019-04-19T18:36:41.865Z,21.10
2019-04-19T18:39:06.825Z,20.85
2019-04-19T18:41:37.027Z,20.76
2019-04-19T18:44:15.121Z,20.65
2019-04-19T18:46:40.700Z,20.46
2019-04-19T18:49:11.684Z,20.33
2019-04-19T18:51:47.990Z,20.17
2019-04-19T18:54:25.902Z,20.09
2019-04-19T18:56:58.604Z,19.98
2019-04-19T18:59:26.149Z,19.82
2019-04-19T19:02:18.520Z,19.63
2019-04-19T19:05:00.368Z,19.49
2019-04-19T19:08:20.526Z,19.37
2019-04-19T19:10:52.347Z,19.25
2019-04-19T19:13:55.812Z,19.03
2019-04-19T19:16:39.870Z,18.97
2019-04-19T19:19:22.736Z,18.83
2019-04-19T19:22:20.544Z,18.50
2019-04-19T19:25:08.760Z,18.33
2019-04-19T19:27:46.169Z,18.26
2019-04-19T19:30:17.252Z,18.21
2019-04-19T19:33:07.597Z,18.06
2019-04-19T19:36:13.082Z,17.99
2019-04-19T19:39:03.260Z,17.45
2019-04-19T19:42:34.642Z,17.51
2019-04-19T19:44:59.909Z,17.82
2019-04-19T19:47:58.903Z,18.30
2019-04-19T19:50:30.309Z,18.61
2019-04-19T19:53:25.574Z,18.10
2019-04-19T19:56:04.006Z,18.10
2019-04-19T19:58:34.262Z,17.97
2019-04-19T20:04:27.189Z,17.59
2019-04-19T20:07:14.081Z,17.33
2019-04-19T20:10:14.119Z,17.06
2019-04-19T20:13:12.739Z,17.06
2019-04-19T20:16:00.911Z,17.05
2019-04-19T20:18:39.546Z,16.83
2019-04-19T20:21:11.829Z,16.83
2019-04-19T20:24:04.181Z,16.83
2019-04-19T20:26:50.175Z,16.71
2019-04-19T20:29:25.406Z,16.43
2019-04-19T20:31:54.509Z,16.46
2019-04-19T20:35:13.959Z,16.46
2019-04-19T20:38:10.486Z,16.44
2019-04-19T20:40:57.759Z,16.19
2019-04-19T20:46:21.847Z,15.95
2019-04-19T20:52:32.612Z,15.89
2019-04-19T20:55:28.387Z,15.66
2019-04-19T20:58:29.194Z,15.66
2019-04-19T21:01:10.440Z,15.64
2019-04-19T21:03:43.769Z,15.51
2019-04-19T21:06:41.396Z,15.51
2019-04-19T21:09:45.486Z,15.33
2019-04-19T21:12:27.657Z,15.31
2019-04-19T21:15:13.938Z,15.33
2019-04-19T21:17:48.422Z,15.17
2019-04-19T21:20:28.017Z,15.17
2019-04-19T21:26:14.770Z,15.06
2019-04-19T21:28:47.739Z,15.19
2019-04-19T21:31:23.425Z,15.33
2019-04-19T21:34:07.035Z,15.64
2019-04-19T21:36:42.341Z,15.64
2019-04-19T21:39:12.984Z,15.71
2019-04-19T21:41:48.757Z,15.71
2019-04-19T21:45:06.796Z,15.93
2019-04-19T21:47:54.781Z,16.25
2019-04-19T21:50:29.465Z,16.28
2019-04-19T21:53:03.505Z,16.28
2019-04-19T21:55:35.667Z,16.17
2019-04-19T21:58:27.597Z,16.31
2019-04-19T22:01:25.460Z,16.39
2019-04-19T22:03:57.419Z,16.33
2019-04-19T22:06:33.231Z,16.33
2019-04-19T22:09:11.480Z,16.30
2019-04-19T22:11:40.574Z,16.30
2019-04-19T22:14:24.828Z,16.28
2019-04-19T22:16:56.794Z,16.44
2019-04-19T22:22:41.476Z,16.35
2019-04-19T22:25:43.311Z,16.41
2019-04-19T22:28:09.819Z,16.41
2019-04-19T22:31:11.307Z,16.48
2019-04-19T22:33:43.615Z,16.43
2019-04-19T22:36:39.034Z,16.43
2019-04-19T22:39:05.691Z,16.43
2019-04-19T22:41:48.957Z,16.32
2019-04-19T22:44:18.596Z,16.32
2019-04-19T22:46:55.980Z,16.37
2019-04-19T22:49:33.976Z,16.23
2019-04-19T22:52:09.285Z,16.23
2019-04-19T22:54:40.491Z,16.16
2019-04-19T22:57:27.906Z,16.16
2019-04-19T22:59:59.841Z,16.25
2019-04-19T23:02:50.194Z,16.01
2019-04-19T23:05:25.965Z,16.01
2019-04-19T23:07:59.064Z,16.04
2019-04-19T23:10:41.911Z,16.10
2019-04-19T23:13:11.819Z,16.11
2019-04-19T23:15:44.027Z,15.99
2019-04-19T23:18:23.243Z,15.94
2019-04-19T23:21:05.376Z,15.94
2019-04-19T23:23:34.692Z,15.93
2019-04-19T23:26:22.583Z,15.88
2019-04-19T23:28:49.533Z,15.85
2019-04-19T23:31:21.098Z,15.81
2019-04-19T23:33:58.679Z,15.87
2019-04-19T23:36:31.243Z,15.81
2019-04-19T23:39:39.197Z,15.81
2019-04-19T23:42:37.315Z,15.91
2019-04-19T23:45:14.727Z,15.74
2019-04-19T23:48:00.394Z,15.70
2019-04-19T23:50:37.308Z,15.60
2019-04-19T23:53:48.560Z,15.60
2019-04-19T23:56:38.291Z,15.70
2019-04-19T23:59:36.902Z,15.60
